Flight Track Log - Related Links

Times and Time Zones

All times are in EDT time to prevent confusion due to time zone crossing. See the RPA4907 flight status page for this flight to view local times or setup timezone preferences in your user account.

Time Position Orientation Groundspeed Altitude Reporting Facility
EDT Latitude Longitude Course Direction KTS MPH feet Rate Location/Type
Thu 16:38:41 40.7167 -74.1500 246° West 181 208 1,500  Level New TRACON
Thu 16:39:41 40.7667 -74.1167 27° Northeast 231 266 3,200 2,250 Climbing New TRACON
Thu 16:40:41 40.7667 -74.2000 270° West 215 247 6,000 2,400 Climbing New TRACON
Thu 16:41:00 40.5310 -74.6268 245° Southwest  Level FlightAware
Thu 16:41:41 40.7500 -74.2833 255° West 226 260 8,000  Level New TRACON
Thu 16:42:00 40.4909 -74.7442 246° West  Level FlightAware
Thu 16:43:00 40.4516 -74.8620 246° West  Level FlightAware
Thu 16:43:41 40.6928 -74.4194 241° Southwest 240 276 11,200  Level New Center
Thu 16:44:38 40.6528 -74.5019 237° Southwest 245 282 12,900 1,412 Climbing New Center
Thu 16:45:40 40.6147 -74.5819 238° Southwest 250 288 14,000 537 Climbing New Center
Thu 16:46:41 40.5767 -74.6619 238° Southwest 272 313 14,000  Level New Center
Thu 16:47:41 40.5253 -74.7656 237° Southwest 309 356 14,000 50 Level New Center
Thu 16:48:40 40.4739 -74.8661 236° Southwest 331 381 14,100 50 Climbing New Center
Thu 16:49:40 40.4289 -74.9589 238° Southwest 337 388 14,100  Level New Center
Thu 16:50:41 40.3672 -75.0533 229° Southwest 337 388 14,100  Level New Center
Thu 16:51:41 40.2950 -75.1494 225° Southwest 343 395 14,100  Level New Center
Thu 16:52:39 40.2289 -75.2406 226° Southwest 343 395 14,100 -51 Level New Center
Thu 16:53:39 40.1628 -75.3339 227° Southwest 357 411 14,000 -50 Descending New Center
Thu 16:54:39 40.0967 -75.4244 226° Southwest 357 411 14,000  Level New Center
Thu 16:55:40 40.0328 -75.5125 227° Southwest 357 411 14,000  Level New Center
Thu 16:56:41 39.9667 -75.6028 226° Southwest 352 405 14,000  Level New Center
Thu 16:57:41 39.9022 -75.6958 228° Southwest 357 411 14,000  Level New Center
Thu 16:58:41 39.8522 -75.7978 237° Southwest 345 397 14,000 -458 Level New Center
Thu 16:59:39 39.8000 -75.8967 236° Southwest 338 389 13,100 -1,032 Descending New Center
Thu 17:01:18 39.7167 -76.0667 238° Southwest 324 373 11,300 -792 Descending Potomac TRACON
Thu 17:02:18 39.6667 -76.1500 232° Southwest 311 358 11,000 -650 Descending Potomac TRACON
Thu 17:03:18 39.6167 -76.2333 232° Southwest 274 315 10,000 -1,000 Descending Potomac TRACON
Thu 17:04:18 39.5667 -76.3167 232° Southwest 272 313 9,000 -1,000 Descending Potomac TRACON
Thu 17:05:18 39.5167 -76.3667 218° Southwest 267 307 8,000 -1,000 Descending Potomac TRACON
Thu 17:06:18 39.4500 -76.4167 210° Southwest 271 312 7,000 -992 Descending Potomac TRACON
Thu 17:07:19 39.3833 -76.4500 201° Southwest 282 325 6,000 -1,140 Descending Potomac TRACON
Thu 17:08:19 39.3000 -76.4500 180° South 274 315 4,700 -1,041 Descending Potomac TRACON
Thu 17:09:20 39.2333 -76.4500 180° South 272 313 3,900 -893 Descending Potomac TRACON
Thu 17:10:20 39.1667 -76.5000 210° Southwest 239 275 2,900 -1,000 Descending Potomac TRACON

Login

Don't have an account? Register now (free) for customized features, flight alerts, and more!